Aviation Digital Data Service (ADDS)

Output produced by TAFs form (0410 UTC 24 May 2017)
found at http://aviationweather.gov/adds/tafs/
 
KTUS 240354Z 2404/2424 32006KT P6SM FEW250 
     FM240800 15006KT P6SM FEW250 
     FM242100 27012G18KT P6SM SCT250